sensor_id;sensor_type;location;lat;lon;timestamp;P1;durP1;ratioP1;P2;durP2;ratioP2
77872;SDS011;67068;52.116;4.440;2023-06-14T00:00:20;6.40;;;2.03;;
77872;SDS011;67068;52.116;4.440;2023-06-14T00:02:46;7.50;;;2.23;;
77872;SDS011;67068;52.116;4.440;2023-06-14T00:05:11;7.15;;;2.33;;
77872;SDS011;67068;52.116;4.440;2023-06-14T00:07:40;5.80;;;2.35;;
77872;SDS011;67068;52.116;4.440;2023-06-14T00:10:09;6.65;;;1.90;;
77872;SDS011;67068;52.116;4.440;2023-06-14T00:12:35;6.82;;;2.60;;
77872;SDS011;67068;52.116;4.440;2023-06-14T00:15:01;6.95;;;2.15;;
77872;SDS011;67068;52.116;4.440;2023-06-14T00:17:26;7.20;;;2.35;;
77872;SDS011;67068;52.116;4.440;2023-06-14T00:19:55;6.32;;;2.22;;
77872;SDS011;67068;52.116;4.440;2023-06-14T00:22:21;6.10;;;2.13;;
77872;SDS011;67068;52.116;4.440;2023-06-14T00:24:49;6.13;;;2.38;;
77872;SDS011;67068;52.116;4.440;2023-06-14T00:27:14;7.45;;;2.25;;
77872;SDS011;67068;52.116;4.440;2023-06-14T00:29:40;5.85;;;2.00;;
77872;SDS011;67068;52.116;4.440;2023-06-14T00:32:05;5.37;;;1.87;;
77872;SDS011;67068;52.116;4.440;2023-06-14T00:34:30;6.82;;;2.00;;
77872;SDS011;67068;52.116;4.440;2023-06-14T00:36:56;6.53;;;1.80;;
77872;SDS011;67068;52.116;4.440;2023-06-14T00:39:21;6.03;;;2.17;;
77872;SDS011;67068;52.116;4.440;2023-06-14T00:41:46;6.93;;;1.97;;
77872;SDS011;67068;52.116;4.440;2023-06-14T00:44:12;6.00;;;2.00;;
77872;SDS011;67068;52.116;4.440;2023-06-14T00:46:39;6.88;;;2.10;;
77872;SDS011;67068;52.116;4.440;2023-06-14T00:49:04;6.37;;;2.40;;
77872;SDS011;67068;52.116;4.440;2023-06-14T00:51:29;6.22;;;1.90;;
77872;SDS011;67068;52.116;4.440;2023-06-14T00:53:55;5.53;;;2.07;;
77872;SDS011;67068;52.116;4.440;2023-06-14T00:56:20;7.97;;;2.60;;
77872;SDS011;67068;52.116;4.440;2023-06-14T00:58:45;7.10;;;2.45;;
77872;SDS011;67068;52.116;4.440;2023-06-14T01:01:11;7.43;;;2.47;;
77872;SDS011;67068;52.116;4.440;2023-06-14T01:03:36;6.13;;;2.30;;
77872;SDS011;67068;52.116;4.440;2023-06-14T01:06:07;6.90;;;2.20;;
77872;SDS011;67068;52.116;4.440;2023-06-14T01:11:10;6.10;;;2.08;;
77872;SDS011;67068;52.116;4.440;2023-06-14T01:13:40;5.60;;;2.03;;
77872;SDS011;67068;52.116;4.440;2023-06-14T01:16:07;5.63;;;1.70;;
77872;SDS011;67068;52.116;4.440;2023-06-14T01:18:33;7.43;;;2.20;;
77872;SDS011;67068;52.116;4.440;2023-06-14T01:21:00;6.82;;;2.38;;
77872;SDS011;67068;52.116;4.440;2023-06-14T01:23:30;7.55;;;2.08;;
77872;SDS011;67068;52.116;4.440;2023-06-14T01:25:57;6.45;;;1.95;;
77872;SDS011;67068;52.116;4.440;2023-06-14T01:28:22;6.07;;;2.47;;
77872;SDS011;67068;52.116;4.440;2023-06-14T01:30:54;6.80;;;2.20;;
77872;SDS011;67068;52.116;4.440;2023-06-14T01:33:23;6.07;;;2.00;;
77872;SDS011;67068;52.116;4.440;2023-06-14T01:35:51;6.18;;;1.90;;
77872;SDS011;67068;52.116;4.440;2023-06-14T01:38:20;5.43;;;1.95;;
77872;SDS011;67068;52.116;4.440;2023-06-14T01:40:46;6.95;;;2.10;;
77872;SDS011;67068;52.116;4.440;2023-06-14T01:43:16;7.38;;;2.00;;
77872;SDS011;67068;52.116;4.440;2023-06-14T01:45:41;6.35;;;2.08;;
77872;SDS011;67068;52.116;4.440;2023-06-14T01:48:07;6.75;;;2.05;;
77872;SDS011;67068;52.116;4.440;2023-06-14T01:50:32;5.25;;;1.88;;
77872;SDS011;67068;52.116;4.440;2023-06-14T01:52:58;6.13;;;2.13;;
77872;SDS011;67068;52.116;4.440;2023-06-14T01:55:23;7.13;;;2.30;;
77872;SDS011;67068;52.116;4.440;2023-06-14T01:57:49;5.82;;;1.98;;
77872;SDS011;67068;52.116;4.440;2023-06-14T02:00:15;6.03;;;2.13;;
77872;SDS011;67068;52.116;4.440;2023-06-14T02:02:41;6.03;;;2.25;;
77872;SDS011;67068;52.116;4.440;2023-06-14T02:05:06;6.47;;;2.13;;
77872;SDS011;67068;52.116;4.440;2023-06-14T02:07:32;5.40;;;2.03;;
77872;SDS011;67068;52.116;4.440;2023-06-14T02:09:58;5.93;;;1.98;;
77872;SDS011;67068;52.116;4.440;2023-06-14T02:12:23;6.23;;;2.00;;
77872;SDS011;67068;52.116;4.440;2023-06-14T02:14:48;6.83;;;2.37;;
77872;SDS011;67068;52.116;4.440;2023-06-14T02:17:14;6.37;;;1.90;;
77872;SDS011;67068;52.116;4.440;2023-06-14T02:19:39;6.47;;;1.90;;
77872;SDS011;67068;52.116;4.440;2023-06-14T02:22:05;7.72;;;2.50;;
77872;SDS011;67068;52.116;4.440;2023-06-14T02:24:30;6.67;;;2.10;;
77872;SDS011;67068;52.116;4.440;2023-06-14T02:26:55;6.03;;;1.80;;
77872;SDS011;67068;52.116;4.440;2023-06-14T02:29:21;7.37;;;2.30;;
77872;SDS011;67068;52.116;4.440;2023-06-14T02:31:46;6.60;;;2.13;;
77872;SDS011;67068;52.116;4.440;2023-06-14T02:34:13;5.85;;;1.92;;
77872;SDS011;67068;52.116;4.440;2023-06-14T02:36:38;5.83;;;1.70;;
77872;SDS011;67068;52.116;4.440;2023-06-14T02:39:06;5.80;;;2.10;;
77872;SDS011;67068;52.116;4.440;2023-06-14T02:41:31;5.87;;;1.73;;
77872;SDS011;67068;52.116;4.440;2023-06-14T02:43:56;6.67;;;1.90;;
77872;SDS011;67068;52.116;4.440;2023-06-14T02:46:23;7.07;;;2.40;;
77872;SDS011;67068;52.116;4.440;2023-06-14T02:48:48;7.60;;;2.50;;
77872;SDS011;67068;52.116;4.440;2023-06-14T02:51:14;6.37;;;2.00;;
77872;SDS011;67068;52.116;4.440;2023-06-14T02:53:39;5.93;;;2.00;;
77872;SDS011;67068;52.116;4.440;2023-06-14T02:56:05;6.70;;;1.98;;
77872;SDS011;67068;52.116;4.440;2023-06-14T02:58:30;7.07;;;2.30;;
77872;SDS011;67068;52.116;4.440;2023-06-14T03:00:56;6.10;;;1.77;;
77872;SDS011;67068;52.116;4.440;2023-06-14T03:03:21;5.93;;;1.83;;
77872;SDS011;67068;52.116;4.440;2023-06-14T03:05:50;6.18;;;2.13;;
77872;SDS011;67068;52.116;4.440;2023-06-14T03:08:16;6.63;;;2.08;;
77872;SDS011;67068;52.116;4.440;2023-06-14T03:10:45;6.80;;;1.77;;
77872;SDS011;67068;52.116;4.440;2023-06-14T03:13:11;5.38;;;1.90;;
77872;SDS011;67068;52.116;4.440;2023-06-14T03:15:37;6.50;;;1.98;;
77872;SDS011;67068;52.116;4.440;2023-06-14T03:18:02;5.83;;;2.00;;
77872;SDS011;67068;52.116;4.440;2023-06-14T03:20:28;6.18;;;2.05;;
77872;SDS011;67068;52.116;4.440;2023-06-14T03:22:58;7.32;;;2.25;;
77872;SDS011;67068;52.116;4.440;2023-06-14T03:25:23;7.05;;;2.30;;
77872;SDS011;67068;52.116;4.440;2023-06-14T03:27:48;6.57;;;1.93;;
77872;SDS011;67068;52.116;4.440;2023-06-14T03:30:13;5.47;;;1.90;;
77872;SDS011;67068;52.116;4.440;2023-06-14T03:32:39;7.60;;;2.15;;
77872;SDS011;67068;52.116;4.440;2023-06-14T03:35:04;7.13;;;2.23;;
77872;SDS011;67068;52.116;4.440;2023-06-14T03:37:30;5.20;;;1.88;;
77872;SDS011;67068;52.116;4.440;2023-06-14T03:39:55;5.18;;;1.80;;
77872;SDS011;67068;52.116;4.440;2023-06-14T03:42:20;5.27;;;1.73;;
77872;SDS011;67068;52.116;4.440;2023-06-14T03:44:45;5.43;;;2.20;;
77872;SDS011;67068;52.116;4.440;2023-06-14T03:47:11;7.53;;;2.17;;
77872;SDS011;67068;52.116;4.440;2023-06-14T03:49:36;6.00;;;1.87;;
77872;SDS011;67068;52.116;4.440;2023-06-14T03:52:01;5.18;;;1.98;;
77872;SDS011;67068;52.116;4.440;2023-06-14T03:54:27;5.60;;;2.00;;
77872;SDS011;67068;52.116;4.440;2023-06-14T03:56:53;6.65;;;2.00;;
77872;SDS011;67068;52.116;4.440;2023-06-14T03:59:18;6.07;;;2.00;;
77872;SDS011;67068;52.116;4.440;2023-06-14T04:01:44;5.77;;;1.97;;
77872;SDS011;67068;52.116;4.440;2023-06-14T04:04:11;6.68;;;2.13;;
77872;SDS011;67068;52.116;4.440;2023-06-14T04:06:37;5.85;;;1.88;;
77872;SDS011;67068;52.116;4.440;2023-06-14T04:09:02;5.57;;;2.20;;
77872;SDS011;67068;52.116;4.440;2023-06-14T04:11:27;5.97;;;2.08;;
77872;SDS011;67068;52.116;4.440;2023-06-14T04:13:53;5.70;;;2.03;;
77872;SDS011;67068;52.116;4.440;2023-06-14T04:16:18;5.72;;;1.88;;
77872;SDS011;67068;52.116;4.440;2023-06-14T04:18:44;5.83;;;2.17;;
77872;SDS011;67068;52.116;4.440;2023-06-14T04:21:09;5.67;;;1.90;;
77872;SDS011;67068;52.116;4.440;2023-06-14T04:23:34;5.23;;;1.90;;
77872;SDS011;67068;52.116;4.440;2023-06-14T04:25:59;6.13;;;2.10;;
77872;SDS011;67068;52.116;4.440;2023-06-14T04:28:27;6.25;;;1.90;;
77872;SDS011;67068;52.116;4.440;2023-06-14T04:30:52;6.30;;;2.08;;
77872;SDS011;67068;52.116;4.440;2023-06-14T04:33:18;7.47;;;2.05;;
77872;SDS011;67068;52.116;4.440;2023-06-14T04:35:43;7.23;;;2.03;;
77872;SDS011;67068;52.116;4.440;2023-06-14T04:38:12;6.57;;;1.90;;
77872;SDS011;67068;52.116;4.440;2023-06-14T04:40:37;5.68;;;1.98;;
77872;SDS011;67068;52.116;4.440;2023-06-14T04:43:10;8.85;;;1.77;;
77872;SDS011;67068;52.116;4.440;2023-06-14T04:45:42;7.85;;;1.70;;
77872;SDS011;67068;52.116;4.440;2023-06-14T04:48:11;6.05;;;2.03;;
77872;SDS011;67068;52.116;4.440;2023-06-14T04:50:37;5.93;;;1.98;;
77872;SDS011;67068;52.116;4.440;2023-06-14T04:53:02;5.67;;;1.80;;
77872;SDS011;67068;52.116;4.440;2023-06-14T04:55:28;6.53;;;1.80;;
77872;SDS011;67068;52.116;4.440;2023-06-14T04:57:53;5.33;;;1.60;;
77872;SDS011;67068;52.116;4.440;2023-06-14T05:00:19;6.90;;;1.90;;
77872;SDS011;67068;52.116;4.440;2023-06-14T05:02:44;5.68;;;1.88;;
77872;SDS011;67068;52.116;4.440;2023-06-14T05:05:09;6.10;;;2.10;;
77872;SDS011;67068;52.116;4.440;2023-06-14T05:07:36;6.13;;;1.80;;
77872;SDS011;67068;52.116;4.440;2023-06-14T05:10:01;6.88;;;2.00;;
77872;SDS011;67068;52.116;4.440;2023-06-14T05:12:27;6.13;;;2.05;;
77872;SDS011;67068;52.116;4.440;2023-06-14T05:14:54;5.90;;;1.92;;
77872;SDS011;67068;52.116;4.440;2023-06-14T05:17:19;6.85;;;2.25;;
77872;SDS011;67068;52.116;4.440;2023-06-14T05:19:45;6.60;;;2.00;;
77872;SDS011;67068;52.116;4.440;2023-06-14T05:22:11;6.60;;;2.25;;
77872;SDS011;67068;52.116;4.440;2023-06-14T05:24:36;7.07;;;1.90;;
77872;SDS011;67068;52.116;4.440;2023-06-14T05:27:01;6.27;;;2.17;;
77872;SDS011;67068;52.116;4.440;2023-06-14T05:29:26;7.43;;;2.33;;
77872;SDS011;67068;52.116;4.440;2023-06-14T05:31:52;7.30;;;1.92;;
77872;SDS011;67068;52.116;4.440;2023-06-14T05:34:17;7.17;;;2.40;;
77872;SDS011;67068;52.116;4.440;2023-06-14T05:36:43;6.45;;;1.80;;
77872;SDS011;67068;52.116;4.440;2023-06-14T05:39:08;8.13;;;2.00;;
77872;SDS011;67068;52.116;4.440;2023-06-14T05:41:34;5.65;;;1.80;;
77872;SDS011;67068;52.116;4.440;2023-06-14T05:43:59;5.20;;;1.70;;
77872;SDS011;67068;52.116;4.440;2023-06-14T05:46:25;6.53;;;2.10;;
77872;SDS011;67068;52.116;4.440;2023-06-14T05:48:51;6.75;;;2.33;;
77872;SDS011;67068;52.116;4.440;2023-06-14T05:51:16;5.43;;;2.05;;
77872;SDS011;67068;52.116;4.440;2023-06-14T05:53:44;6.88;;;2.30;;
77872;SDS011;67068;52.116;4.440;2023-06-14T05:56:10;5.60;;;1.67;;
77872;SDS011;67068;52.116;4.440;2023-06-14T05:58:35;5.83;;;1.80;;
77872;SDS011;67068;52.116;4.440;2023-06-14T06:01:00;5.10;;;1.90;;
77872;SDS011;67068;52.116;4.440;2023-06-14T06:03:26;5.20;;;1.77;;
77872;SDS011;67068;52.116;4.440;2023-06-14T06:05:54;7.15;;;2.30;;
77872;SDS011;67068;52.116;4.440;2023-06-14T06:08:19;6.70;;;2.10;;
77872;SDS011;67068;52.116;4.440;2023-06-14T06:10:45;4.80;;;1.83;;
77872;SDS011;67068;52.116;4.440;2023-06-14T06:13:10;6.83;;;2.00;;
77872;SDS011;67068;52.116;4.440;2023-06-14T06:15:35;5.17;;;1.80;;
77872;SDS011;67068;52.116;4.440;2023-06-14T06:18:01;5.15;;;1.85;;
77872;SDS011;67068;52.116;4.440;2023-06-14T06:20:26;5.87;;;1.77;;
77872;SDS011;67068;52.116;4.440;2023-06-14T06:22:53;6.13;;;1.90;;
77872;SDS011;67068;52.116;4.440;2023-06-14T06:25:18;5.63;;;2.13;;
77872;SDS011;67068;52.116;4.440;2023-06-14T06:27:44;5.05;;;1.88;;
77872;SDS011;67068;52.116;4.440;2023-06-14T06:30:09;6.60;;;2.03;;
77872;SDS011;67068;52.116;4.440;2023-06-14T06:32:35;6.72;;;1.83;;
77872;SDS011;67068;52.116;4.440;2023-06-14T06:35:00;6.72;;;1.80;;
77872;SDS011;67068;52.116;4.440;2023-06-14T06:37:26;5.70;;;1.90;;
77872;SDS011;67068;52.116;4.440;2023-06-14T06:39:51;6.53;;;1.92;;
77872;SDS011;67068;52.116;4.440;2023-06-14T06:42:16;5.57;;;1.60;;
77872;SDS011;67068;52.116;4.440;2023-06-14T06:44:41;6.07;;;1.80;;
77872;SDS011;67068;52.116;4.440;2023-06-14T06:47:07;4.60;;;1.70;;
77872;SDS011;67068;52.116;4.440;2023-06-14T06:49:32;8.07;;;2.00;;
77872;SDS011;67068;52.116;4.440;2023-06-14T06:54:26;7.45;;;1.90;;
77872;SDS011;67068;52.116;4.440;2023-06-14T06:56:51;5.73;;;1.97;;
77872;SDS011;67068;52.116;4.440;2023-06-14T06:59:17;6.70;;;1.93;;
77872;SDS011;67068;52.116;4.440;2023-06-14T07:01:42;6.33;;;1.70;;
77872;SDS011;67068;52.116;4.440;2023-06-14T07:04:07;6.20;;;2.10;;
77872;SDS011;67068;52.116;4.440;2023-06-14T07:06:32;7.30;;;2.20;;
77872;SDS011;67068;52.116;4.440;2023-06-14T07:08:58;6.20;;;1.90;;
77872;SDS011;67068;52.116;4.440;2023-06-14T07:13:51;5.55;;;2.10;;
77872;SDS011;67068;52.116;4.440;2023-06-14T07:16:17;6.43;;;1.98;;
77872;SDS011;67068;52.116;4.440;2023-06-14T07:18:42;6.70;;;2.10;;
77872;SDS011;67068;52.116;4.440;2023-06-14T07:21:08;6.63;;;2.00;;
77872;SDS011;67068;52.116;4.440;2023-06-14T07:23:34;5.90;;;2.03;;
77872;SDS011;67068;52.116;4.440;2023-06-14T07:25:59;8.55;;;2.20;;
77872;SDS011;67068;52.116;4.440;2023-06-14T07:28:24;6.37;;;1.80;;
77872;SDS011;67068;52.116;4.440;2023-06-14T07:30:50;7.27;;;2.00;;
77872;SDS011;67068;52.116;4.440;2023-06-14T07:33:15;7.33;;;2.23;;
77872;SDS011;67068;52.116;4.440;2023-06-14T07:35:40;7.47;;;2.30;;
77872;SDS011;67068;52.116;4.440;2023-06-14T07:38:05;9.70;;;3.20;;
77872;SDS011;67068;52.116;4.440;2023-06-14T07:40:30;10.80;;;3.20;;
77872;SDS011;67068;52.116;4.440;2023-06-14T07:42:56;9.90;;;2.80;;
77872;SDS011;67068;52.116;4.440;2023-06-14T07:45:21;8.77;;;2.70;;
77872;SDS011;67068;52.116;4.440;2023-06-14T07:47:46;8.93;;;3.40;;
77872;SDS011;67068;52.116;4.440;2023-06-14T07:50:12;8.80;;;2.95;;
77872;SDS011;67068;52.116;4.440;2023-06-14T07:52:38;15.95;;;3.30;;
77872;SDS011;67068;52.116;4.440;2023-06-14T07:55:04;9.07;;;2.70;;
77872;SDS011;67068;52.116;4.440;2023-06-14T07:57:29;9.57;;;3.15;;
77872;SDS011;67068;52.116;4.440;2023-06-14T07:59:54;7.03;;;2.70;;
77872;SDS011;67068;52.116;4.440;2023-06-14T08:02:19;10.77;;;3.10;;
77872;SDS011;67068;52.116;4.440;2023-06-14T08:04:45;10.43;;;2.90;;
77872;SDS011;67068;52.116;4.440;2023-06-14T08:07:11;9.10;;;2.85;;
77872;SDS011;67068;52.116;4.440;2023-06-14T08:09:37;11.48;;;2.90;;
77872;SDS011;67068;52.116;4.440;2023-06-14T08:12:05;9.52;;;3.20;;
77872;SDS011;67068;52.116;4.440;2023-06-14T08:14:32;11.63;;;3.28;;
77872;SDS011;67068;52.116;4.440;2023-06-14T08:16:58;8.30;;;3.10;;
77872;SDS011;67068;52.116;4.440;2023-06-14T08:19:23;9.27;;;3.00;;
77872;SDS011;67068;52.116;4.440;2023-06-14T08:21:48;8.17;;;3.07;;
77872;SDS011;67068;52.116;4.440;2023-06-14T08:24:13;9.83;;;2.90;;
77872;SDS011;67068;52.116;4.440;2023-06-14T08:26:39;8.20;;;2.97;;
77872;SDS011;67068;52.116;4.440;2023-06-14T08:29:04;7.60;;;3.10;;
77872;SDS011;67068;52.116;4.440;2023-06-14T08:31:30;7.68;;;2.63;;
77872;SDS011;67068;52.116;4.440;2023-06-14T08:33:56;8.60;;;2.95;;
77872;SDS011;67068;52.116;4.440;2023-06-14T08:36:22;10.07;;;2.77;;
77872;SDS011;67068;52.116;4.440;2023-06-14T08:38:48;9.70;;;2.70;;
77872;SDS011;67068;52.116;4.440;2023-06-14T08:41:13;10.20;;;2.75;;
77872;SDS011;67068;52.116;4.440;2023-06-14T08:43:42;8.32;;;3.50;;
77872;SDS011;67068;52.116;4.440;2023-06-14T08:46:07;8.87;;;2.83;;
77872;SDS011;67068;52.116;4.440;2023-06-14T08:48:35;10.30;;;2.80;;
77872;SDS011;67068;52.116;4.440;2023-06-14T08:51:01;10.13;;;2.85;;
77872;SDS011;67068;52.116;4.440;2023-06-14T08:53:33;10.18;;;3.20;;
77872;SDS011;67068;52.116;4.440;2023-06-14T08:55:59;9.45;;;3.50;;
77872;SDS011;67068;52.116;4.440;2023-06-14T08:58:29;8.65;;;2.80;;
77872;SDS011;67068;52.116;4.440;2023-06-14T09:00:56;8.65;;;3.00;;
77872;SDS011;67068;52.116;4.440;2023-06-14T09:03:22;7.47;;;2.92;;
77872;SDS011;67068;52.116;4.440;2023-06-14T09:05:48;11.02;;;2.90;;
77872;SDS011;67068;52.116;4.440;2023-06-14T09:08:13;9.77;;;3.30;;
77872;SDS011;67068;52.116;4.440;2023-06-14T09:10:39;8.33;;;2.83;;
77872;SDS011;67068;52.116;4.440;2023-06-14T09:13:05;9.73;;;2.90;;
77872;SDS011;67068;52.116;4.440;2023-06-14T09:15:30;10.82;;;3.28;;
77872;SDS011;67068;52.116;4.440;2023-06-14T09:17:56;9.07;;;3.10;;
77872;SDS011;67068;52.116;4.440;2023-06-14T09:20:23;9.10;;;3.03;;
77872;SDS011;67068;52.116;4.440;2023-06-14T09:22:48;8.77;;;3.20;;
77872;SDS011;67068;52.116;4.440;2023-06-14T09:25:14;9.20;;;2.80;;
77872;SDS011;67068;52.116;4.440;2023-06-14T09:27:43;7.80;;;2.75;;
77872;SDS011;67068;52.116;4.440;2023-06-14T09:30:08;8.95;;;3.55;;
77872;SDS011;67068;52.116;4.440;2023-06-14T09:32:37;9.50;;;2.95;;
77872;SDS011;67068;52.116;4.440;2023-06-14T09:35:04;10.52;;;3.10;;
77872;SDS011;67068;52.116;4.440;2023-06-14T09:37:30;9.80;;;3.03;;
77872;SDS011;67068;52.116;4.440;2023-06-14T09:39:56;10.30;;;3.03;;
77872;SDS011;67068;52.116;4.440;2023-06-14T09:42:21;9.25;;;3.20;;
77872;SDS011;67068;52.116;4.440;2023-06-14T09:44:48;9.30;;;3.03;;
77872;SDS011;67068;52.116;4.440;2023-06-14T09:47:16;9.23;;;3.08;;
77872;SDS011;67068;52.116;4.440;2023-06-14T09:49:42;8.55;;;2.92;;
77872;SDS011;67068;52.116;4.440;2023-06-14T09:52:09;11.35;;;2.97;;
77872;SDS011;67068;52.116;4.440;2023-06-14T09:54:35;8.38;;;2.78;;
77872;SDS011;67068;52.116;4.440;2023-06-14T09:57:05;6.95;;;2.85;;
77872;SDS011;67068;52.116;4.440;2023-06-14T09:59:31;8.25;;;2.75;;
77872;SDS011;67068;52.116;4.440;2023-06-14T10:02:00;9.48;;;3.22;;
77872;SDS011;67068;52.116;4.440;2023-06-14T10:04:29;7.90;;;2.80;;
77872;SDS011;67068;52.116;4.440;2023-06-14T10:06:55;7.30;;;2.50;;
77872;SDS011;67068;52.116;4.440;2023-06-14T10:09:21;7.60;;;3.00;;
77872;SDS011;67068;52.116;4.440;2023-06-14T10:11:47;8.98;;;2.67;;
77872;SDS011;67068;52.116;4.440;2023-06-14T10:14:12;6.80;;;2.35;;
77872;SDS011;67068;52.116;4.440;2023-06-14T10:19:37;7.30;;;2.75;;
77872;SDS011;67068;52.116;4.440;2023-06-14T10:22:16;8.68;;;2.90;;
77872;SDS011;67068;52.116;4.440;2023-06-14T10:24:44;9.10;;;2.83;;
77872;SDS011;67068;52.116;4.440;2023-06-14T10:27:09;8.23;;;3.05;;
77872;SDS011;67068;52.116;4.440;2023-06-14T10:29:46;8.60;;;2.80;;
77872;SDS011;67068;52.116;4.440;2023-06-14T10:32:24;8.27;;;2.72;;
77872;SDS011;67068;52.116;4.440;2023-06-14T10:34:56;9.35;;;2.45;;
77872;SDS011;67068;52.116;4.440;2023-06-14T10:37:22;9.60;;;2.90;;
77872;SDS011;67068;52.116;4.440;2023-06-14T10:39:47;7.80;;;3.03;;
77872;SDS011;67068;52.116;4.440;2023-06-14T10:42:13;7.00;;;2.38;;
77872;SDS011;67068;52.116;4.440;2023-06-14T10:44:39;7.50;;;2.60;;
77872;SDS011;67068;52.116;4.440;2023-06-14T10:47:10;7.93;;;2.60;;
77872;SDS011;67068;52.116;4.440;2023-06-14T10:52:08;7.47;;;2.20;;
77872;SDS011;67068;52.116;4.440;2023-06-14T10:54:34;8.30;;;2.60;;
77872;SDS011;67068;52.116;4.440;2023-06-14T10:56:59;7.57;;;2.40;;
77872;SDS011;67068;52.116;4.440;2023-06-14T10:59:24;9.97;;;2.60;;
77872;SDS011;67068;52.116;4.440;2023-06-14T11:04:15;8.63;;;2.60;;
77872;SDS011;67068;52.116;4.440;2023-06-14T11:06:45;7.38;;;2.40;;
77872;SDS011;67068;52.116;4.440;2023-06-14T11:09:19;6.63;;;2.10;;
77872;SDS011;67068;52.116;4.440;2023-06-14T11:11:46;7.70;;;2.50;;
77872;SDS011;67068;52.116;4.440;2023-06-14T11:14:13;8.13;;;2.30;;
77872;SDS011;67068;52.116;4.440;2023-06-14T11:16:38;7.60;;;2.33;;
77872;SDS011;67068;52.116;4.440;2023-06-14T11:19:03;7.77;;;2.17;;
77872;SDS011;67068;52.116;4.440;2023-06-14T11:21:28;7.90;;;2.40;;
77872;SDS011;67068;52.116;4.440;2023-06-14T11:23:56;7.35;;;2.60;;
77872;SDS011;67068;52.116;4.440;2023-06-14T11:26:29;7.82;;;2.53;;
77872;SDS011;67068;52.116;4.440;2023-06-14T11:28:55;9.35;;;2.30;;
77872;SDS011;67068;52.116;4.440;2023-06-14T11:31:20;8.65;;;2.10;;
77872;SDS011;67068;52.116;4.440;2023-06-14T11:33:49;5.33;;;1.70;;
77872;SDS011;67068;52.116;4.440;2023-06-14T11:36:15;9.45;;;2.45;;
77872;SDS011;67068;52.116;4.440;2023-06-14T11:38:40;8.82;;;2.25;;
77872;SDS011;67068;52.116;4.440;2023-06-14T11:41:05;5.03;;;2.10;;
77872;SDS011;67068;52.116;4.440;2023-06-14T11:43:31;5.07;;;1.83;;
77872;SDS011;67068;52.116;4.440;2023-06-14T11:45:58;5.53;;;2.03;;
77872;SDS011;67068;52.116;4.440;2023-06-14T11:48:23;7.83;;;2.07;;
77872;SDS011;67068;52.116;4.440;2023-06-14T11:51:00;7.03;;;2.10;;
77872;SDS011;67068;52.116;4.440;2023-06-14T11:53:25;6.78;;;2.08;;
77872;SDS011;67068;52.116;4.440;2023-06-14T11:55:51;5.47;;;2.00;;
77872;SDS011;67068;52.116;4.440;2023-06-14T11:58:16;9.55;;;2.30;;
77872;SDS011;67068;52.116;4.440;2023-06-14T12:00:41;7.75;;;2.15;;
77872;SDS011;67068;52.116;4.440;2023-06-14T12:03:07;6.80;;;1.90;;
77872;SDS011;67068;52.116;4.440;2023-06-14T12:05:32;5.33;;;1.70;;
77872;SDS011;67068;52.116;4.440;2023-06-14T12:08:01;6.07;;;1.70;;
77872;SDS011;67068;52.116;4.440;2023-06-14T12:10:28;7.40;;;2.05;;
77872;SDS011;67068;52.116;4.440;2023-06-14T12:12:56;5.32;;;1.90;;
77872;SDS011;67068;52.116;4.440;2023-06-14T12:15:22;5.65;;;2.05;;
77872;SDS011;67068;52.116;4.440;2023-06-14T12:17:47;7.23;;;1.73;;
77872;SDS011;67068;52.116;4.440;2023-06-14T12:20:12;6.03;;;2.13;;
77872;SDS011;67068;52.116;4.440;2023-06-14T12:22:51;4.78;;;1.80;;
77872;SDS011;67068;52.116;4.440;2023-06-14T12:25:30;6.88;;;1.80;;
77872;SDS011;67068;52.116;4.440;2023-06-14T12:27:56;4.80;;;1.60;;
77872;SDS011;67068;52.116;4.440;2023-06-14T12:30:22;6.40;;;1.83;;
77872;SDS011;67068;52.116;4.440;2023-06-14T12:32:47;6.17;;;1.90;;
77872;SDS011;67068;52.116;4.440;2023-06-14T12:35:13;6.75;;;2.28;;
77872;SDS011;67068;52.116;4.440;2023-06-14T12:37:38;8.07;;;1.90;;
77872;SDS011;67068;52.116;4.440;2023-06-14T12:40:04;9.32;;;1.98;;
77872;SDS011;67068;52.116;4.440;2023-06-14T12:42:32;7.55;;;1.92;;
77872;SDS011;67068;52.116;4.440;2023-06-14T12:44:58;6.70;;;2.03;;
77872;SDS011;67068;52.116;4.440;2023-06-14T12:47:23;6.17;;;2.13;;
77872;SDS011;67068;52.116;4.440;2023-06-14T12:49:49;6.67;;;1.80;;
77872;SDS011;67068;52.116;4.440;2023-06-14T12:52:14;7.18;;;2.15;;
77872;SDS011;67068;52.116;4.440;2023-06-14T12:54:39;7.00;;;2.20;;
77872;SDS011;67068;52.116;4.440;2023-06-14T12:57:05;5.93;;;1.70;;
77872;SDS011;67068;52.116;4.440;2023-06-14T12:59:30;5.82;;;1.67;;
77872;SDS011;67068;52.116;4.440;2023-06-14T13:02:00;6.10;;;1.60;;
77872;SDS011;67068;52.116;4.440;2023-06-14T13:04:25;8.38;;;2.00;;
77872;SDS011;67068;52.116;4.440;2023-06-14T13:06:50;6.70;;;1.93;;
77872;SDS011;67068;52.116;4.440;2023-06-14T13:09:15;6.47;;;2.07;;
77872;SDS011;67068;52.116;4.440;2023-06-14T13:11:40;5.93;;;1.80;;
77872;SDS011;67068;52.116;4.440;2023-06-14T13:14:06;8.70;;;2.03;;
77872;SDS011;67068;52.116;4.440;2023-06-14T13:16:31;7.00;;;2.33;;
77872;SDS011;67068;52.116;4.440;2023-06-14T13:18:56;6.95;;;2.13;;
77872;SDS011;67068;52.116;4.440;2023-06-14T13:21:22;7.27;;;2.00;;
77872;SDS011;67068;52.116;4.440;2023-06-14T13:23:47;8.70;;;2.40;;
77872;SDS011;67068;52.116;4.440;2023-06-14T13:26:12;7.53;;;2.10;;
77872;SDS011;67068;52.116;4.440;2023-06-14T13:28:37;7.13;;;2.20;;
77872;SDS011;67068;52.116;4.440;2023-06-14T13:31:03;7.83;;;2.10;;
77872;SDS011;67068;52.116;4.440;2023-06-14T13:33:28;8.63;;;2.85;;
77872;SDS011;67068;52.116;4.440;2023-06-14T13:35:54;8.53;;;2.47;;
77872;SDS011;67068;52.116;4.440;2023-06-14T13:38:19;6.72;;;2.47;;
77872;SDS011;67068;52.116;4.440;2023-06-14T13:40:45;7.18;;;2.40;;
77872;SDS011;67068;52.116;4.440;2023-06-14T13:43:10;8.80;;;2.58;;
77872;SDS011;67068;52.116;4.440;2023-06-14T13:45:36;7.00;;;2.20;;
77872;SDS011;67068;52.116;4.440;2023-06-14T13:48:01;7.13;;;2.00;;
77872;SDS011;67068;52.116;4.440;2023-06-14T13:50:26;5.30;;;1.70;;
77872;SDS011;67068;52.116;4.440;2023-06-14T13:52:51;6.60;;;1.90;;
77872;SDS011;67068;52.116;4.440;2023-06-14T13:55:17;7.85;;;2.20;;
77872;SDS011;67068;52.116;4.440;2023-06-14T13:57:42;6.97;;;2.10;;
77872;SDS011;67068;52.116;4.440;2023-06-14T14:00:08;6.38;;;2.00;;
77872;SDS011;67068;52.116;4.440;2023-06-14T14:02:33;7.15;;;2.17;;
77872;SDS011;67068;52.116;4.440;2023-06-14T14:04:59;5.63;;;1.80;;
77872;SDS011;67068;52.116;4.440;2023-06-14T14:07:24;6.07;;;2.00;;
77872;SDS011;67068;52.116;4.440;2023-06-14T14:09:49;6.70;;;2.00;;
77872;SDS011;67068;52.116;4.440;2023-06-14T14:12:15;7.07;;;1.90;;
77872;SDS011;67068;52.116;4.440;2023-06-14T14:14:40;6.82;;;2.35;;
77872;SDS011;67068;52.116;4.440;2023-06-14T14:17:05;6.80;;;1.92;;
77872;SDS011;67068;52.116;4.440;2023-06-14T14:19:31;4.85;;;1.67;;
77872;SDS011;67068;52.116;4.440;2023-06-14T14:21:56;6.13;;;1.70;;
77872;SDS011;67068;52.116;4.440;2023-06-14T14:24:22;7.13;;;2.10;;
77872;SDS011;67068;52.116;4.440;2023-06-14T14:26:47;6.30;;;2.10;;
77872;SDS011;67068;52.116;4.440;2023-06-14T14:29:13;6.35;;;2.00;;
77872;SDS011;67068;52.116;4.440;2023-06-14T14:31:39;6.28;;;2.00;;
77872;SDS011;67068;52.116;4.440;2023-06-14T14:34:04;6.27;;;2.30;;
77872;SDS011;67068;52.116;4.440;2023-06-14T14:36:30;5.72;;;2.00;;
77872;SDS011;67068;52.116;4.440;2023-06-14T14:41:23;5.90;;;1.90;;
77872;SDS011;67068;52.116;4.440;2023-06-14T14:43:48;4.77;;;1.60;;
77872;SDS011;67068;52.116;4.440;2023-06-14T14:46:13;6.10;;;2.00;;
77872;SDS011;67068;52.116;4.440;2023-06-14T14:48:41;6.72;;;1.70;;
77872;SDS011;67068;52.116;4.440;2023-06-14T14:51:06;5.77;;;2.03;;
77872;SDS011;67068;52.116;4.440;2023-06-14T14:53:32;5.80;;;1.70;;
77872;SDS011;67068;52.116;4.440;2023-06-14T14:55:58;5.30;;;1.90;;
77872;SDS011;67068;52.116;4.440;2023-06-14T14:58:24;6.47;;;1.88;;